createdAt,value
2019-02-25T00:00:15.353Z,12.60
2019-02-25T00:02:59.943Z,11.70
2019-02-25T00:05:45.316Z,12.00
2019-02-25T00:08:30.597Z,11.23
2019-02-25T00:11:15.701Z,12.17
2019-02-25T00:14:01.062Z,11.60
2019-02-25T00:16:45.798Z,10.60
2019-02-25T00:19:30.565Z,11.10
2019-02-25T00:22:15.600Z,12.33
2019-02-25T00:25:01.263Z,11.80
2019-02-25T00:27:46.311Z,12.07
2019-02-25T00:30:31.290Z,16.07
2019-02-25T00:33:16.447Z,10.93
2019-02-25T00:36:01.129Z,17.00
2019-02-25T00:38:46.567Z,13.87
2019-02-25T00:41:31.859Z,11.67
2019-02-25T00:44:16.678Z,12.90
2019-02-25T00:47:01.553Z,11.67
2019-02-25T00:49:47.264Z,10.20
2019-02-25T00:52:32.607Z,12.37
2019-02-25T00:55:17.859Z,16.10
2019-02-25T00:58:03.266Z,27.00
2019-02-25T01:00:50.041Z,20.10
2019-02-25T01:03:35.388Z,24.83
2019-02-25T01:06:20.069Z,31.93
2019-02-25T01:09:05.904Z,29.60
2019-02-25T01:11:50.563Z,20.53
2019-02-25T01:14:35.809Z,25.20
2019-02-25T01:17:21.054Z,14.67
2019-02-25T01:20:09.100Z,15.23
2019-02-25T01:22:54.296Z,13.87
2019-02-25T01:25:39.348Z,13.00
2019-02-25T01:28:24.587Z,12.83
2019-02-25T01:31:09.628Z,12.63
2019-02-25T01:33:54.403Z,11.27
2019-02-25T01:36:39.353Z,14.70
2019-02-25T01:39:24.146Z,16.07
2019-02-25T01:42:11.118Z,13.17
2019-02-25T01:44:56.247Z,11.67
2019-02-25T01:47:41.421Z,11.60
2019-02-25T01:50:26.669Z,11.10
2019-02-25T01:53:12.245Z,15.67
2019-02-25T01:55:57.186Z,12.27
2019-02-25T01:58:42.101Z,12.83
2019-02-25T02:01:26.883Z,12.30
2019-02-25T02:04:11.816Z,11.47
2019-02-25T02:06:57.032Z,11.60
2019-02-25T02:09:42.186Z,13.27
2019-02-25T02:12:27.350Z,14.87
2019-02-25T02:15:15.472Z,12.07
2019-02-25T02:18:00.902Z,10.73
2019-02-25T02:20:46.018Z,11.87
2019-02-25T02:23:31.048Z,10.90
2019-02-25T02:26:15.696Z,13.17
2019-02-25T02:29:00.511Z,14.27
2019-02-25T02:31:45.274Z,12.57
2019-02-25T02:34:30.046Z,13.53
2019-02-25T02:37:16.843Z,15.73
2019-02-25T02:40:03.471Z,20.07
2019-02-25T02:42:58.942Z,19.97
2019-02-25T02:45:51.041Z,16.97
2019-02-25T02:48:45.721Z,25.17
2019-02-25T02:51:30.619Z,13.60
2019-02-25T02:54:15.699Z,20.03
2019-02-25T02:57:00.441Z,20.93
2019-02-25T02:59:45.283Z,20.07
2019-02-25T03:02:30.102Z,24.33
2019-02-25T03:05:15.682Z,23.20
2019-02-25T03:08:01.076Z,20.33
2019-02-25T03:10:46.237Z,14.83
2019-02-25T03:13:31.600Z,16.97
2019-02-25T03:16:16.767Z,14.40
2019-02-25T03:19:02.113Z,16.20
2019-02-25T03:21:47.251Z,15.87
2019-02-25T03:24:32.188Z,17.73
2019-02-25T03:27:17.631Z,18.50
2019-02-25T03:30:06.648Z,11.13
2019-02-25T03:32:51.501Z,11.27
2019-02-25T03:35:36.782Z,11.37
2019-02-25T03:38:21.435Z,11.00
2019-02-25T03:41:06.694Z,16.70
2019-02-25T03:43:52.384Z,9.70
2019-02-25T03:46:37.349Z,12.67
2019-02-25T03:49:22.387Z,13.67
2019-02-25T03:52:07.399Z,13.73
2019-02-25T03:54:53.014Z,16.77
2019-02-25T03:57:40.100Z,16.73
2019-02-25T04:00:25.447Z,22.40
2019-02-25T04:03:10.210Z,14.40
2019-02-25T04:05:54.976Z,14.33
2019-02-25T04:08:41.721Z,12.77
2019-02-25T04:11:26.792Z,15.77
2019-02-25T04:14:12.281Z,12.33
2019-02-25T04:16:57.307Z,12.13
2019-02-25T04:19:42.295Z,11.33
2019-02-25T04:22:26.952Z,10.10
2019-02-25T04:25:12.279Z,11.53
2019-02-25T04:27:57.485Z,7.80
2019-02-25T04:30:42.852Z,9.57
2019-02-25T04:33:27.685Z,13.87
2019-02-25T04:36:12.553Z,10.70
2019-02-25T04:38:57.421Z,8.50
2019-02-25T04:41:41.977Z,9.67
2019-02-25T04:44:26.876Z,9.90
2019-02-25T04:47:11.853Z,9.70
2019-02-25T04:49:56.998Z,10.43
2019-02-25T04:52:42.425Z,10.63
2019-02-25T04:55:27.339Z,8.83
2019-02-25T04:58:12.318Z,10.27
2019-02-25T05:00:57.791Z,11.03
2019-02-25T05:03:42.810Z,10.77
2019-02-25T05:06:27.550Z,9.03
2019-02-25T05:09:12.418Z,8.73
2019-02-25T05:11:58.074Z,8.43
2019-02-25T05:14:43.131Z,10.50
2019-02-25T05:17:29.444Z,9.43
2019-02-25T05:20:14.593Z,8.80
2019-02-25T05:22:59.589Z,9.27
2019-02-25T05:25:44.567Z,10.30
2019-02-25T05:28:29.270Z,8.93
2019-02-25T05:31:14.603Z,7.60
2019-02-25T05:33:59.488Z,7.80
2019-02-25T05:36:44.490Z,10.20
2019-02-25T05:39:29.178Z,10.97
2019-02-25T05:42:14.505Z,10.87
2019-02-25T05:44:59.394Z,7.73
2019-02-25T05:47:45.366Z,8.77
2019-02-25T05:50:30.719Z,9.23
2019-02-25T05:53:16.081Z,8.93
2019-02-25T05:56:02.318Z,8.80
2019-02-25T05:58:47.163Z,10.50
2019-02-25T06:01:31.974Z,9.63
2019-02-25T06:04:17.080Z,10.90
2019-02-25T06:07:02.154Z,11.00
2019-02-25T06:09:47.721Z,9.87
2019-02-25T06:12:32.520Z,12.07
2019-02-25T06:15:18.136Z,9.93
2019-02-25T06:18:03.062Z,10.67
2019-02-25T06:20:48.966Z,14.57
2019-02-25T06:23:34.326Z,10.73
2019-02-25T06:26:20.411Z,11.47
2019-02-25T06:29:05.296Z,12.33
2019-02-25T06:31:50.027Z,10.60
2019-02-25T06:34:34.834Z,11.80
2019-02-25T06:37:20.112Z,9.77
2019-02-25T06:40:10.956Z,9.83
2019-02-25T06:42:56.072Z,11.17
2019-02-25T06:45:41.508Z,11.97
2019-02-25T06:48:26.155Z,11.90
2019-02-25T06:51:11.022Z,12.00
2019-02-25T06:53:55.921Z,9.47
2019-02-25T06:56:40.884Z,13.13
2019-02-25T06:59:25.766Z,14.47
2019-02-25T07:02:10.622Z,16.30
2019-02-25T07:04:58.865Z,12.73
2019-02-25T07:07:58.462Z,11.13
2019-02-25T07:10:54.506Z,16.83
2019-02-25T07:13:47.085Z,12.23
2019-02-25T07:16:39.737Z,17.23
2019-02-25T07:19:35.750Z,18.77
2019-02-25T07:22:22.517Z,18.67
2019-02-25T07:25:26.407Z,13.10
2019-02-25T07:28:13.577Z,11.53
2019-02-25T07:31:12.351Z,16.47
2019-02-25T07:34:11.458Z,19.53
2019-02-25T07:37:15.226Z,17.83
2019-02-25T07:40:02.018Z,11.87
2019-02-25T07:43:05.531Z,10.63
2019-02-25T07:45:57.991Z,15.77
2019-02-25T07:48:47.507Z,17.93
2019-02-25T07:51:36.800Z,21.50
2019-02-25T07:54:23.456Z,21.87
2019-02-25T07:57:22.480Z,18.53
2019-02-25T08:00:11.161Z,18.33
2019-02-25T08:03:01.166Z,20.30
2019-02-25T08:06:03.141Z,17.97
2019-02-25T08:09:06.987Z,13.37
2019-02-25T08:11:53.694Z,13.27
2019-02-25T08:14:44.903Z,17.47
2019-02-25T08:17:40.557Z,11.80
2019-02-25T08:20:30.272Z,11.10
2019-02-25T08:23:23.295Z,11.67
2019-02-25T08:26:13.271Z,10.57
2019-02-25T08:29:02.637Z,9.43
2019-02-25T08:31:49.322Z,11.97
2019-02-25T08:34:45.230Z,10.33
2019-02-25T08:37:57.281Z,10.20
2019-02-25T08:40:47.010Z,6.50
2019-02-25T08:43:40.095Z,5.63
2019-02-25T08:46:27.384Z,6.83
2019-02-25T08:49:20.221Z,6.53
2019-02-25T08:52:05.130Z,8.13
2019-02-25T08:54:50.515Z,5.03
2019-02-25T08:57:35.510Z,7.83
2019-02-25T09:00:20.805Z,5.57
2019-02-25T09:03:05.467Z,6.13
2019-02-25T09:05:51.780Z,6.40
2019-02-25T09:08:36.653Z,6.83
2019-02-25T09:11:21.537Z,5.97
2019-02-25T09:14:06.947Z,5.90
2019-02-25T09:16:52.162Z,8.10
2019-02-25T09:19:37.626Z,6.47
2019-02-25T09:22:22.786Z,5.30
2019-02-25T09:25:12.548Z,7.23
2019-02-25T09:27:57.571Z,5.17
2019-02-25T09:30:42.527Z,4.70
2019-02-25T09:33:27.380Z,6.33
2019-02-25T09:36:12.297Z,5.37
2019-02-25T09:38:57.490Z,5.23
2019-02-25T09:41:42.526Z,5.17
2019-02-25T09:44:27.535Z,6.10
2019-02-25T09:47:12.546Z,6.60
2019-02-25T09:49:57.862Z,5.27
2019-02-25T09:52:42.630Z,4.60
2019-02-25T09:55:27.684Z,3.43
2019-02-25T09:58:12.870Z,5.63
2019-02-25T10:00:57.696Z,4.40
2019-02-25T10:03:43.131Z,4.87
2019-02-25T10:06:28.285Z,5.53
2019-02-25T10:09:13.525Z,5.93
2019-02-25T10:11:58.900Z,6.40
2019-02-25T10:14:44.165Z,4.07
2019-02-25T10:17:29.125Z,5.13
2019-02-25T10:20:14.472Z,5.10
2019-02-25T10:22:59.740Z,6.07
2019-02-25T10:25:44.630Z,5.33
2019-02-25T10:28:29.870Z,5.00
2019-02-25T10:31:15.802Z,6.80
2019-02-25T10:34:01.807Z,6.13
2019-02-25T10:36:48.207Z,5.47
2019-02-25T10:39:33.959Z,5.07
2019-02-25T10:42:18.951Z,6.87
2019-02-25T10:45:08.996Z,6.30
2019-02-25T10:47:58.443Z,4.73
2019-02-25T10:50:41.241Z,6.73
2019-02-25T10:53:26.642Z,4.00
2019-02-25T10:56:16.717Z,6.83
2019-02-25T10:59:03.974Z,7.80
2019-02-25T11:01:49.880Z,6.13
2019-02-25T11:04:34.985Z,4.30
2019-02-25T11:07:20.133Z,5.03
2019-02-25T11:10:09.693Z,3.53
2019-02-25T11:12:55.513Z,5.00
2019-02-25T11:15:42.385Z,5.05
2019-02-25T11:18:28.770Z,5.23
2019-02-25T11:21:14.132Z,6.33
2019-02-25T11:23:59.484Z,3.97
2019-02-25T11:26:44.619Z,3.72
2019-02-25T11:29:29.540Z,2.90
2019-02-25T11:32:14.989Z,4.47
2019-02-25T11:35:01.468Z,6.58
2019-02-25T11:37:47.091Z,2.85
2019-02-25T11:40:33.674Z,4.05
2019-02-25T11:43:21.364Z,3.72
2019-02-25T11:46:05.937Z,8.00
2019-02-25T11:48:50.974Z,3.33
2019-02-25T11:51:35.783Z,3.37
2019-02-25T11:54:21.156Z,3.30
2019-02-25T11:57:06.294Z,4.25
2019-02-25T11:59:52.891Z,4.05
2019-02-25T12:02:38.271Z,3.80
2019-02-25T12:05:23.393Z,4.90
2019-02-25T12:08:08.414Z,4.85
2019-02-25T12:10:53.748Z,3.00
2019-02-25T12:13:38.950Z,3.17
2019-02-25T12:16:23.871Z,4.37
2019-02-25T12:19:17.577Z,4.55
2019-02-25T12:21:56.125Z,5.00
2019-02-25T12:24:40.761Z,5.78
2019-02-25T12:27:25.714Z,7.67
2019-02-25T12:30:21.959Z,4.15
2019-02-25T12:33:07.094Z,4.28
2019-02-25T12:35:52.614Z,5.80
2019-02-25T12:38:37.594Z,5.58
2019-02-25T12:41:23.880Z,3.50
2019-02-25T12:44:09.349Z,5.22
2019-02-25T12:46:55.279Z,6.03
2019-02-25T12:49:40.534Z,4.90
2019-02-25T12:52:26.024Z,6.05
2019-02-25T12:55:12.420Z,4.35
2019-02-25T12:57:57.750Z,5.37
2019-02-25T13:00:42.938Z,7.78
2019-02-25T13:03:28.391Z,4.55
2019-02-25T13:06:13.378Z,5.85
2019-02-25T13:08:58.434Z,5.75
2019-02-25T13:11:43.631Z,9.10
2019-02-25T13:14:28.679Z,4.25
2019-02-25T13:17:15.600Z,6.08
2019-02-25T13:20:00.509Z,5.85
2019-02-25T13:22:45.651Z,6.45
2019-02-25T13:25:31.196Z,6.72
2019-02-25T13:28:16.340Z,6.42
2019-02-25T13:31:03.256Z,4.37
2019-02-25T13:33:48.805Z,5.92
2019-02-25T13:36:33.750Z,8.63
2019-02-25T13:39:19.104Z,6.78
2019-02-25T13:42:04.664Z,5.35
2019-02-25T13:44:49.742Z,8.63
2019-02-25T13:47:35.249Z,6.37
2019-02-25T13:50:20.477Z,4.55
2019-02-25T13:53:05.615Z,6.12
2019-02-25T13:55:50.967Z,8.70
2019-02-25T13:58:36.429Z,5.12
2019-02-25T14:01:22.195Z,5.92
2019-02-25T14:04:09.544Z,7.90
2019-02-25T14:06:55.749Z,4.72
2019-02-25T14:09:41.011Z,4.62
2019-02-25T14:12:27.780Z,5.00
2019-02-25T14:15:23.825Z,4.55
2019-02-25T14:18:09.890Z,7.72
2019-02-25T14:20:55.094Z,3.92
2019-02-25T14:23:40.532Z,6.85
2019-02-25T14:26:25.864Z,5.65
2019-02-25T14:29:11.038Z,4.72
2019-02-25T14:31:56.483Z,4.17
2019-02-25T14:34:44.318Z,7.87
2019-02-25T14:37:28.725Z,5.80
2019-02-25T14:40:18.769Z,6.40
2019-02-25T14:43:05.871Z,5.05
2019-02-25T14:45:53.955Z,6.65
2019-02-25T14:48:37.164Z,9.98
2019-02-25T14:51:23.845Z,4.08
2019-02-25T14:54:08.879Z,4.67
2019-02-25T14:56:54.741Z,4.87
2019-02-25T14:59:41.533Z,4.40
2019-02-25T15:02:26.689Z,4.37
2019-02-25T15:05:13.041Z,4.00
2019-02-25T15:07:58.749Z,4.72
2019-02-25T15:10:43.982Z,4.60
2019-02-25T15:13:30.337Z,5.72
2019-02-25T15:16:16.874Z,5.70
2019-02-25T15:19:02.230Z,5.55
2019-02-25T15:21:47.508Z,5.87
2019-02-25T15:24:34.210Z,4.35
2019-02-25T15:27:19.694Z,4.58
2019-02-25T15:30:18.667Z,4.12
2019-02-25T15:33:04.759Z,5.97
2019-02-25T15:35:49.990Z,6.10
2019-02-25T15:38:36.952Z,4.30
2019-02-25T15:41:22.129Z,4.53
2019-02-25T15:44:08.995Z,10.25
2019-02-25T15:46:54.993Z,21.00
2019-02-25T15:49:40.669Z,10.40
2019-02-25T15:52:27.572Z,12.13
2019-02-25T15:55:16.809Z,7.70
2019-02-25T15:58:01.883Z,5.80
2019-02-25T16:00:47.175Z,8.43
2019-02-25T16:03:34.445Z,4.45
2019-02-25T16:06:19.438Z,5.37
2019-02-25T16:09:06.285Z,5.42
2019-02-25T16:11:52.500Z,5.12
2019-02-25T16:14:39.375Z,4.58
2019-02-25T16:17:24.493Z,4.65
2019-02-25T16:20:17.549Z,4.10
2019-02-25T16:23:05.856Z,4.47
2019-02-25T16:25:53.169Z,4.95
2019-02-25T16:28:39.912Z,6.37
2019-02-25T16:31:26.444Z,4.90
2019-02-25T16:34:14.642Z,4.95
2019-02-25T16:37:00.392Z,6.42
2019-02-25T16:39:46.166Z,6.20
2019-02-25T16:42:32.371Z,6.35
2019-02-25T16:45:21.643Z,7.15
2019-02-25T16:48:06.856Z,4.87
2019-02-25T16:50:51.955Z,7.15
2019-02-25T16:53:39.055Z,5.22
2019-02-25T16:56:24.201Z,7.12
2019-02-25T16:59:11.030Z,6.70
2019-02-25T17:01:58.069Z,5.65
2019-02-25T17:04:43.290Z,6.15
2019-02-25T17:07:28.226Z,4.83
2019-02-25T17:10:24.119Z,7.65
2019-02-25T17:13:08.107Z,7.83
2019-02-25T17:15:54.248Z,9.10
2019-02-25T17:18:39.438Z,7.57
2019-02-25T17:21:26.551Z,9.37
2019-02-25T17:24:12.016Z,8.20
2019-02-25T17:26:56.988Z,7.93
2019-02-25T17:29:42.874Z,6.30
2019-02-25T17:32:27.922Z,7.47
2019-02-25T17:35:15.203Z,6.03
2019-02-25T17:38:01.284Z,8.23
2019-02-25T17:40:47.381Z,5.43
2019-02-25T17:43:34.245Z,9.67
2019-02-25T17:46:19.903Z,6.20
2019-02-25T17:49:07.862Z,6.83
2019-02-25T17:51:55.408Z,7.33
2019-02-25T17:54:40.520Z,7.57
2019-02-25T17:57:27.350Z,7.77
2019-02-25T18:00:25.589Z,6.43
2019-02-25T18:03:12.962Z,8.83
2019-02-25T18:06:00.586Z,7.57
2019-02-25T18:08:46.313Z,8.27
2019-02-25T18:11:31.426Z,8.45
2019-02-25T18:14:19.712Z,6.90
2019-02-25T18:17:05.995Z,6.67
2019-02-25T18:19:54.407Z,7.47
2019-02-25T18:22:39.986Z,6.50
2019-02-25T18:25:25.414Z,7.40
2019-02-25T18:28:12.663Z,9.27
2019-02-25T18:30:59.643Z,11.37
2019-02-25T18:33:46.818Z,14.33
2019-02-25T18:36:33.198Z,16.67
2019-02-25T18:39:18.583Z,11.40
2019-02-25T18:42:04.033Z,11.90
2019-02-25T18:44:51.119Z,10.10
2019-02-25T18:47:36.648Z,9.87
2019-02-25T18:50:24.132Z,8.97
2019-02-25T18:53:10.805Z,7.53
2019-02-25T18:55:56.762Z,7.33
2019-02-25T18:58:42.370Z,7.03
2019-02-25T19:01:28.363Z,8.20
2019-02-25T19:04:15.428Z,9.53
2019-02-25T19:07:01.957Z,8.10
2019-02-25T19:09:49.346Z,10.80
2019-02-25T19:12:35.781Z,10.77
2019-02-25T19:15:21.011Z,11.87
2019-02-25T19:18:06.934Z,10.23
2019-02-25T19:20:53.300Z,12.40
2019-02-25T19:23:39.558Z,11.10
2019-02-25T19:26:25.470Z,11.10
2019-02-25T19:29:12.510Z,11.23
2019-02-25T19:32:00.618Z,12.67
2019-02-25T19:34:44.666Z,14.60
2019-02-25T19:37:32.926Z,15.57
2019-02-25T19:40:21.860Z,14.10
2019-02-25T19:43:07.360Z,12.80
2019-02-25T19:45:52.759Z,14.20
2019-02-25T19:48:38.739Z,11.13
2019-02-25T19:51:25.345Z,11.07
2019-02-25T19:54:11.663Z,15.13
2019-02-25T19:56:58.302Z,14.13
2019-02-25T19:59:46.262Z,15.33
2019-02-25T20:02:32.237Z,13.03
2019-02-25T20:05:19.362Z,17.57
2019-02-25T20:08:05.316Z,13.80
2019-02-25T20:10:54.343Z,15.13
2019-02-25T20:13:38.301Z,11.03
2019-02-25T20:16:28.099Z,10.77
2019-02-25T20:19:12.615Z,12.70
2019-02-25T20:21:57.965Z,14.30
2019-02-25T20:24:45.986Z,12.53
2019-02-25T20:27:30.324Z,13.07
2019-02-25T20:30:19.652Z,14.53
2019-02-25T20:33:06.825Z,13.03
2019-02-25T20:35:55.821Z,11.17
2019-02-25T20:38:40.259Z,10.73
2019-02-25T20:41:26.733Z,11.10
2019-02-25T20:44:13.741Z,13.37
2019-02-25T20:47:00.128Z,14.23
2019-02-25T20:49:49.293Z,11.77
2019-02-25T20:52:34.059Z,14.47
2019-02-25T20:55:20.858Z,13.67
2019-02-25T20:58:05.938Z,13.97
2019-02-25T21:00:51.343Z,11.77
2019-02-25T21:03:36.583Z,15.77
2019-02-25T21:06:21.947Z,12.33
2019-02-25T21:09:08.912Z,11.67
2019-02-25T21:11:54.128Z,17.00
2019-02-25T21:14:41.133Z,14.17
2019-02-25T21:17:28.441Z,16.33
2019-02-25T21:20:14.829Z,18.23
2019-02-25T21:23:04.857Z,13.67
2019-02-25T21:25:46.744Z,17.10
2019-02-25T21:28:33.696Z,18.67
2019-02-25T21:31:21.373Z,16.77
2019-02-25T21:34:06.603Z,16.03
2019-02-25T21:36:54.216Z,13.07
2019-02-25T21:39:40.787Z,13.57
2019-02-25T21:42:26.864Z,16.20
2019-02-25T21:45:18.035Z,11.63
2019-02-25T21:48:04.778Z,12.30
2019-02-25T21:50:49.812Z,13.03
2019-02-25T21:53:35.096Z,17.23
2019-02-25T21:56:22.277Z,13.20
2019-02-25T21:59:08.354Z,13.27
2019-02-25T22:01:55.729Z,12.53
2019-02-25T22:04:43.074Z,11.47
2019-02-25T22:07:29.456Z,15.70
2019-02-25T22:10:16.132Z,14.27
2019-02-25T22:13:04.375Z,12.83
2019-02-25T22:15:48.775Z,14.27
2019-02-25T22:18:36.361Z,14.07
2019-02-25T22:21:21.574Z,12.13
2019-02-25T22:24:08.087Z,15.37
2019-02-25T22:26:54.252Z,10.43
2019-02-25T22:29:41.272Z,13.27
2019-02-25T22:32:27.491Z,12.57
2019-02-25T22:35:14.983Z,10.40
2019-02-25T22:38:02.329Z,12.57
2019-02-25T22:40:48.105Z,11.07
2019-02-25T22:43:33.320Z,9.63
2019-02-25T22:46:20.780Z,10.50
2019-02-25T22:49:07.253Z,12.17
2019-02-25T22:51:55.799Z,13.43
2019-02-25T22:54:41.757Z,13.70
2019-02-25T22:57:27.864Z,11.47
2019-02-25T23:00:49.078Z,12.53
2019-02-25T23:03:34.521Z,10.50
2019-02-25T23:06:23.645Z,10.30
2019-02-25T23:09:12.234Z,12.00
2019-02-25T23:11:56.594Z,10.93
2019-02-25T23:14:42.877Z,14.57
2019-02-25T23:17:31.110Z,11.67
2019-02-25T23:20:15.023Z,12.53
2019-02-25T23:23:04.113Z,11.40
2019-02-25T23:25:49.107Z,11.70
2019-02-25T23:28:34.021Z,13.17
2019-02-25T23:31:18.681Z,12.73
2019-02-25T23:34:05.614Z,14.80
2019-02-25T23:36:51.661Z,14.87
2019-02-25T23:39:38.401Z,11.73
2019-02-25T23:42:25.847Z,13.37
2019-02-25T23:45:12.980Z,12.03
2019-02-25T23:48:00.209Z,11.00
2019-02-25T23:50:47.960Z,12.27
2019-02-25T23:53:35.128Z,11.20
2019-02-25T23:56:22.733Z,11.57
2019-02-25T23:59:10.733Z,13.43
